M I D A S
Marine Information and Data Acquisition System
Tripno 1523 of the Zeeleeuw from 2008-07-22 06:44:23 to 2008-07-22 12:24:34
Back to CruiseResearch ActivitiesStationsMapUnderway DataData graphs

EquipmentUnitsComment
TimeDGPSUTC
LatitudeDGPSDM.mWGS84
LongitudeDGPSDM.mWGS84
TemperatureSBE03/SBE38deg celciusITS90
ConductivitySBE21S/mITS90
SalinitySBE21 Practical Salinity Units
ChlorophylAChelsea fluorimeterg/lCalibrated in Aceton
Missing or incorrect values are displayed as -999
Sea surface data collected by the RV Zeeleeuw from 2008-07-22 06:46:12 to 2008-07-22 12:28:47
Time Latitude Longitude Temperature Conductivity Salinity ChlorophylA
2008-07-22 06:47:17 51°13.636 2°55.992 19.0989 0.01998 0.110028 -1.557753
2008-07-22 06:48:17 51°13.659 2°55.894 19.0961 0.01998 0.110029 -1.557753
2008-07-22 06:49:17 51°13.697 2°55.795 19.1114 0.020186 0.111154 -1.592577
2008-07-22 06:50:17 51°13.714 2°55.765 19.1167 0.0207 0.113964 -1.557753
2008-07-22 06:51:17 51°13.717 2°55.782 19.0921 0.020186 0.111154 -1.557753
2008-07-22 06:52:17 51°13.699 2°55.737 19.1108 0.020392 0.11228 -1.557753
2008-07-22 06:53:17 51°13.723 2°55.731 19.1226 0.020803 0.114539 -1.592577
2008-07-22 06:54:16 51°13.812 2°55.654 19.0832 0.01998 0.110042 -1.557753
2008-07-22 06:55:17 51°13.943 2°55.545 19.0947 0.019877 0.109493 -1.592577
2008-07-22 06:56:17 51°14.074 2°55.444 19.1128 0.01998 0.11006 -1.557753
2008-07-22 06:57:17 51°14.213 2°55.32 19.1022 0.020289 0.111747 -1.557753
2008-07-22 06:58:17 51°14.329 2°55.109 19.102 0.020597 0.113411 -1.592577
2008-07-22 06:59:17 51°14.434 2°54.862 19.0551 0.022758 0.125148 -1.592577
2008-07-22 07:00:17 51°14.555 2°54.633 19.07 0.021626 0.119044 -1.592577
2008-07-22 07:01:17 51°14.712 2°54.489 19.0662 0.024508 0.135047 -1.592577
2008-07-22 07:02:17 51°14.871 2°54.361 19.0713 0.024817 0.136788 -1.592577
2008-07-22 07:03:16 51°15.03 2°54.229 19.0721 0.024199 0.133594 -1.557753
2008-07-22 07:04:16 51°15.196 2°54.098 19.0625 0.023788 0.131371 -1.557753
2008-07-22 07:05:13 51°15.352 2°53.975 19.0801 0.024508 0.135353 -1.592577
2008-07-22 07:06:13 51°15.518 2°53.837 19.0875 0.024508 0.135447 -1.592577
2008-07-22 07:07:13 51°15.695 2°53.728 19.0899 0.024714 0.136631 -1.557753
2008-07-22 07:08:13 51°15.872 2°53.625 19.0934 0.023479 0.1298 -1.557753
2008-07-22 07:09:13 51°16.046 2°53.514 19.0995 0.024817 0.137281 -1.592577
2008-07-22 07:10:13 51°16.223 2°53.405 19.1093 0.024714 0.136682 -1.557753
2008-07-22 07:11:13 51°16.401 2°53.295 19.1106 0.025331 0.140201 -1.557753
2008-07-22 07:12:13 51°16.585 2°53.18 19.1147 0.024919 0.137959 -1.592577
2008-07-22 07:13:13 51°16.772 2°53.069 19.1229 0.023685 0.131101 -1.592577
2008-07-22 07:14:13 51°16.955 2°52.959 19.1353 0.023067 0.127705 -1.557753
2008-07-22 07:15:13 51°17.141 2°52.848 19.1493 0.023067 0.127755 -1.557753
2008-07-22 07:16:13 51°17.328 2°52.744 19.1542 0.024714 0.136917 -1.592577
2008-07-22 07:17:13 51°17.518 2°52.651 19.1646 0.025228 0.13972 -1.557753
2008-07-22 07:18:13 51°17.707 2°52.554 19.1703 0.024508 0.13573 -1.592577
2008-07-22 07:19:13 51°17.893 2°52.443 19.1803 0.023273 0.1289 -1.557753
2008-07-22 07:20:13 51°18.08 2°52.332 19.186 0.023376 0.129511 -1.592577
2008-07-22 07:21:13 51°18.27 2°52.236 19.1914 0.023685 0.131221 -1.557753
2008-07-22 07:22:13 51°18.46 2°52.134 19.2097 0.023376 0.129552 -1.592577
2008-07-22 07:23:13 51°18.653 2°52.05 19.2179 0.024508 0.13585 -1.557753
2008-07-22 07:24:13 51°18.85 2°51.997 19.2294 0.023788 0.131849 -1.592577
2008-07-22 07:25:13 51°19.045 2°51.941 19.2318 0.024096 0.133596 -1.592577
2008-07-22 07:26:13 51°19.236 2°51.878 19.2485 0.024096 0.133546 -1.592577
2008-07-22 07:27:13 51°19.425 2°51.813 19.2556 0.02389 0.1324 -1.557753
2008-07-22 07:28:13 51°19.616 2°51.761 19.2664 0.024096 0.133537 -1.592577
2008-07-22 07:29:13 51°19.808 2°51.709 19.2735 0.024199 0.134138 -1.557753
2008-07-22 07:30:13 51°19.999 2°51.662 19.2858 0.023067 0.127892 -1.592577
2008-07-22 07:31:13 51°20.193 2°51.623 19.2985 0.023582 0.130746 -1.592577
2008-07-22 07:32:13 51°20.387 2°51.584 19.3117 0.023582 0.130761 -1.592577
2008-07-22 07:33:13 51°20.584 2°51.55 19.3196 0.024817 0.137597 -1.592577
2008-07-22 07:34:13 51°20.78 2°51.515 19.3343 0.024096 0.133578 -1.592577
2008-07-22 07:35:13 51°20.974 2°51.486 19.3472 0.02389 0.132481 -1.557753
2008-07-22 07:36:13 51°21.17 2°51.449 19.3506 0.02389 0.132485 -1.592577
2008-07-22 07:37:13 51°21.365 2°51.428 19.3666 0.024199 0.134215 -1.592577
2008-07-22 07:38:13 51°21.56 2°51.404 19.3651 0.024919 0.138164 -1.557753
2008-07-22 07:39:13 51°21.757 2°51.384 19.3919 0.02389 0.132499 -1.557753
2008-07-22 07:40:13 51°21.953 2°51.356 19.4035 0.023993 0.133056 -1.592577
2008-07-22 07:41:13 51°22.15 2°51.319 19.4083 0.024714 0.137064 -1.592577
2008-07-22 07:42:13 51°22.348 2°51.29 19.4221 0.025331 0.140513 -1.557753
2008-07-22 07:43:13 51°22.545 2°51.255 19.4293 0.02317 0.128538 -1.592577
2008-07-22 07:44:13 51°22.743 2°51.222 19.4489 0.022861 0.126804 -1.592577
2008-07-22 07:45:13 51°22.943 2°51.192 19.4609 0.024096 0.133623 -1.592577
2008-07-22 07:46:13 51°23.143 2°51.159 19.4758 0.024919 0.13824 -1.662225
2008-07-22 07:47:13 51°23.342 2°51.133 19.4787 0.025228 0.139928 -1.627401
2008-07-22 07:48:13 51°23.543 2°51.103 19.4901 0.024919 0.138202 -1.627401
2008-07-22 07:49:13 51°23.741 2°51.068 19.5083 0.023788 0.131961 -1.627401
2008-07-22 07:50:13 51°23.941 2°51.032 19.5193 0.024199 0.134245 -1.627401
2008-07-22 07:51:13 51°24.139 2°50.99 19.531 0.023479 0.130263 -1.627401
2008-07-22 07:52:13 51°24.336 2°50.95 19.5328 0.02389 0.132582 -1.627401
2008-07-22 07:53:13 51°24.53 2°50.906 19.55 0.024714 0.137097 -1.627401
2008-07-22 07:54:13 51°24.724 2°50.859 19.5744 0.02389 0.132548 -1.627401
2008-07-22 07:55:13 51°24.918 2°50.815 19.5736 0.024405 0.135394 -1.627401
2008-07-22 07:56:13 51°25.112 2°50.769 19.593 0.024096 0.133712 -1.627401
2008-07-22 07:57:13 51°25.308 2°50.727 19.6016 0.023479 0.130288 -1.662225
2008-07-22 07:58:13 51°25.503 2°50.688 19.6134 0.023685 0.13143 -1.662225
2008-07-22 07:59:13 51°25.698 2°50.649 19.6165 0.024919 0.138244 -1.627401
2008-07-22 08:00:13 51°25.891 2°50.611 19.6297 0.024302 0.134854 -1.627401
2008-07-22 08:01:13 51°26.082 2°50.57 19.6565 0.024611 0.136613 -1.627401
2008-07-22 08:02:13 51°26.276 2°50.52 19.659 0.024611 0.136557 -1.627401
2008-07-22 08:03:13 51°26.471 2°50.471 19.6742 0.022553 0.125178 -1.627401
2008-07-22 08:04:13 51°26.665 2°50.425 19.6783 0.02389 0.13258 -1.627401
2008-07-22 08:05:13 51°26.857 2°50.383 19.7002 0.022347 0.124055 -1.627401
2008-07-22 08:06:13 51°27.051 2°50.338 19.7159 0.025846 0.143433 -1.627401
2008-07-22 08:07:13 51°27.242 2°50.29 19.732 0.022553 0.125184 -1.627401
2008-07-22 08:08:13 51°27.436 2°50.246 19.7371 0.023067 0.128057 -1.627401
2008-07-22 08:09:13 51°27.63 2°50.203 19.7538 0.023685 0.131454 -1.627401
2008-07-22 08:10:13 51°27.824 2°50.16 19.7553 0.025331 0.140595 -1.627401
2008-07-22 08:11:13 51°28.017 2°50.124 19.7813 0.023479 0.130279 -1.627401
2008-07-22 08:12:13 51°28.211 2°50.076 19.7855 0.023376 0.129745 -1.627401
2008-07-22 08:13:13 51°28.404 2°50.03 19.7888 0.023993 0.133183 -1.627401
2008-07-22 08:14:13 51°28.595 2°49.983 19.8055 0.02317 0.128627 -1.627401
2008-07-22 08:15:13 51°28.787 2°49.936 19.8179 0.022758 0.126352 -1.627401
2008-07-22 08:16:13 51°28.977 2°49.893 19.841 0.023685 0.131495 -1.627401
2008-07-22 08:17:13 51°29.169 2°49.856 19.8568 0.025022 0.138893 -1.627401
2008-07-22 08:18:13 51°29.361 2°49.821 19.85 0.023376 0.129783 -1.627401
2008-07-22 08:19:13 51°29.552 2°49.786 19.868 0.024611 0.136571 -1.627401
2008-07-22 08:20:13 51°29.726 2°49.872 19.8748 0.024714 0.13719 -1.662225
2008-07-22 08:21:13 51°29.867 2°50.064 19.902 0.023067 0.128098 -1.627401
2008-07-22 08:22:13 51°30.01 2°50.255 19.9022 0.022553 0.12525 -1.627401
2008-07-22 08:23:13 51°30.156 2°50.438 19.9276 0.022758 0.126384 -1.627401
2008-07-22 08:24:13 51°30.297 2°50.628 19.947 0.023376 0.129802 -1.662225
2008-07-22 08:25:13 51°30.438 2°50.823 19.9273 0.023376 0.129833 -1.662225
2008-07-22 08:26:13 51°30.556 2°51.054 19.943 0.022244 0.123559 -1.627401
2008-07-22 08:27:13 51°30.66 2°51.303 19.9508 0.024096 0.133789 -1.627401
2008-07-22 08:28:13 51°30.761 2°51.555 19.9695 0.022038 0.122383 -1.627401
2008-07-22 08:29:13 51°30.866 2°51.802 19.9814 0.02245 0.124663 -1.627401
2008-07-22 08:30:13 51°30.972 2°52.048 20.0162 0.022656 0.125799 -1.627401
2008-07-22 08:31:13 51°31.077 2°52.295 20.0209 0.022861 0.126952 -1.662225
2008-07-22 08:32:13 51°31.181 2°52.541 20.0236 0.024096 0.133762 -1.627401
2008-07-22 08:33:13 51°31.287 2°52.784 20.0425 0.023067 0.128061 -1.627401
2008-07-22 08:34:13 51°31.392 2°53.031 20.057 0.022656 0.125811 -1.627401
2008-07-22 08:35:13 51°31.496 2°53.277 20.062 0.023479 0.130332 -1.557753
2008-07-22 08:36:13 51°31.601 2°53.524 20.0776 0.022244 0.123542 -1.627401
2008-07-22 08:37:13 51°31.705 2°53.773 20.0897 0.022964 0.12749 -1.627401
2008-07-22 08:38:13 51°31.809 2°54.021 20.1036 0.022244 0.12353 -1.662225
2008-07-22 08:39:13 51°31.916 2°54.267 20.1114 0.022656 0.125826 -1.627401
2008-07-22 08:40:13 51°32.058 2°54.44 20.1471 0.021832 0.121255 -1.627401
2008-07-22 08:41:13 51°32.236 2°54.389 20.1194 0.023067 0.128055 -1.627401
2008-07-22 08:42:13 51°32.401 2°54.228 20.1455 0.026875 0.149219 -1.627401
2008-07-22 08:43:13 51°32.569 2°54.075 20.1362 0.023993 0.133212 -1.627401
2008-07-22 08:44:13 51°32.74 2°53.93 20.1653 0.023273 0.129251 -1.627401
2008-07-22 08:45:13 51°32.909 2°53.786 20.1772 0.022553 0.125231 -1.627401
2008-07-22 08:46:13 51°33.077 2°53.642 20.1828 0.022553 0.125239 -1.627401
2008-07-22 08:47:13 51°33.231 2°53.457 20.2076 0.022553 0.125243 -1.627401
2008-07-22 08:48:13 51°33.285 2°53.151 20.2297 0.021832 0.121265 -1.627401
2008-07-22 08:49:13 51°33.177 2°52.863 20.212 0.027286 0.151557 -1.627401
2008-07-22 08:50:13 51°33.019 2°52.615 20.2101 0.031403 0.174586 -1.627401
2008-07-22 08:51:13 51°32.887 2°52.335 20.2546 0.029962 0.166459 -1.627401
2008-07-22 08:52:13 51°32.773 2°52.033 20.2504 0.034284 0.190805 -1.627401
2008-07-22 08:53:13 51°32.655 2°51.739 20.2644 0.030579 0.169977 -1.627401
2008-07-22 08:54:13 51°32.54 2°51.446 20.2902 0.026772 0.148671 -1.627401
2008-07-22 08:55:13 51°32.425 2°51.152 20.3116 0.033049 0.18385 -1.627401
2008-07-22 08:56:13 51°32.322 2°50.852 20.2875 0.038812 0.216391 -1.627401
2008-07-22 08:57:13 51°32.352 2°50.538 20.317 0.029447 0.163596 -1.627401
2008-07-22 08:58:13 51°32.471 2°50.288 20.3194 0.025537 0.141774 -1.627401
2008-07-22 08:59:13 51°32.606 2°50.06 20.3196 0.025537 0.141798 -1.627401
2008-07-22 09:00:13 51°32.741 2°49.833 20.3398 0.025228 0.140052 -1.627401
2008-07-22 09:01:13 51°32.877 2°49.605 20.3617 0.025949 0.144079 -1.627401
2008-07-22 09:02:13 51°33.013 2°49.378 20.3501 0.023788 0.132107 -1.627401
2008-07-22 09:03:13 51°33.166 2°49.197 20.3758 0.024096 0.133794 -1.627401
2008-07-22 09:04:13 51°33.328 2°49.044 20.402 0.02245 0.124696 -1.627401
2008-07-22 09:05:13 51°33.498 2°48.916 20.4052 0.025846 0.1435 -1.627401
2008-07-22 09:06:13 51°33.667 2°48.789 20.4247 0.028315 0.157252 -1.627401
2008-07-22 09:07:13 51°33.839 2°48.678 20.4252 0.022861 0.126937 -1.627401
2008-07-22 09:08:13 51°34.014 2°48.598 20.421 0.023376 0.129802 -1.627401
2008-07-22 09:09:13 51°34.189 2°48.517 20.4601 0.024405 0.135504 -1.627401
2008-07-22 09:10:13 51°34.364 2°48.434 20.4573 0.021832 0.121279 -1.627401
2008-07-22 09:11:13 51°34.538 2°48.347 20.4369 0.022244 0.123561 -1.627401
2008-07-22 09:12:13 51°34.713 2°48.339 20.4836 0.027183 0.150955 -1.627401
2008-07-22 09:13:13 51°34.887 2°48.372 20.4876 0.023479 0.130352 -1.627401
2008-07-22 09:14:13 51°35.058 2°48.429 20.4977 0.023582 0.130936 -1.627401
2008-07-22 09:15:13 51°35.228 2°48.489 20.5078 0.022244 0.123525 -1.627401
2008-07-22 09:16:13 51°35.399 2°48.55 20.5266 0.024096 0.133778 -1.627401
2008-07-22 09:17:13 51°35.57 2°48.612 20.5196 0.02389 0.132638 -1.627401
2008-07-22 09:18:13 51°35.743 2°48.671 20.5443 0.02564 0.142324 -1.627401
2008-07-22 09:19:13 51°35.917 2°48.731 20.5386 0.023479 0.130367 -1.627401
2008-07-22 09:20:13 51°36.088 2°48.791 20.5666 0.021935 0.12182 -1.627401
2008-07-22 09:21:13 51°36.261 2°48.848 20.5666 0.023479 0.130385 -1.627401
2008-07-22 09:22:13 51°36.432 2°48.909 20.584 0.022244 0.123534 -1.627401
2008-07-22 09:23:13 51°36.605 2°48.963 20.5968 0.021112 0.117286 -1.627401
2008-07-22 09:24:13 51°36.777 2°49.019 20.5922 0.022758 0.126392 -1.627401
2008-07-22 09:25:13 51°36.947 2°49.074 20.5931 0.021318 0.118406 -1.627401
2008-07-22 09:26:13 51°37.117 2°49.134 20.6198 0.022038 0.122383 -1.627401
2008-07-22 09:27:13 51°37.29 2°49.188 20.6284 0.021935 0.121803 -1.627401
2008-07-22 09:28:13 51°37.46 2°49.242 20.6491 0.022347 0.124099 -1.627401
2008-07-22 09:29:13 51°37.629 2°49.296 20.6615 0.022656 0.125773 -1.627401
2008-07-22 09:30:13 51°37.799 2°49.351 20.655 0.021524 0.119531 -1.627401
2008-07-22 09:31:13 51°37.97 2°49.4 20.6888 0.024817 0.137775 -1.627401
2008-07-22 09:32:13 51°38.138 2°49.452 20.6828 0.020803 0.11556 -1.627401
2008-07-22 09:33:13 51°38.304 2°49.507 20.7017 0.022141 0.122909 -1.627401
2008-07-22 09:34:13 51°38.475 2°49.559 20.6904 0.020803 0.115552 -1.627401
2008-07-22 09:35:13 51°38.641 2°49.612 20.7126 0.023376 0.129706 -1.627401
2008-07-22 09:36:13 51°38.81 2°49.667 20.7166 0.021935 0.121779 -1.627401
2008-07-22 09:37:13 51°38.979 2°49.722 20.7242 0.022861 0.126862 -1.627401
2008-07-22 09:38:13 51°39.145 2°49.775 20.7336 0.022141 0.122884 -1.627401
2008-07-22 09:39:13 51°39.313 2°49.829 20.7469 0.021627 0.120077 -1.627401
2008-07-22 09:40:13 51°39.48 2°49.882 20.7657 0.022553 0.125136 -1.627401
2008-07-22 09:41:13 51°39.648 2°49.935 20.7583 0.022141 0.122882 -1.627401
2008-07-22 09:42:13 51°39.816 2°49.989 20.7744 0.022656 0.125701 -1.627401
2008-07-22 09:43:13 51°39.98 2°50.06 20.7942 0.03202 0.177902 -1.627401
2008-07-22 09:44:13 51°40.114 2°50.229 20.8067 0.025846 0.143349 -1.627401
2008-07-22 09:45:13 51°40.227 2°50.436 20.7995 0.028315 0.15711 -1.627401
2008-07-22 09:46:13 51°40.282 2°50.703 20.8262 0.025125 0.13935 -1.627401
2008-07-22 09:47:13 51°40.264 2°50.997 20.8121 0.023582 0.130839 -1.627401
2008-07-22 09:48:13 51°40.18 2°51.281 20.8157 0.024714 0.13708 -1.627401
2008-07-22 09:49:13 51°40.089 2°51.56 20.849 0.032123 0.178411 -1.627401
2008-07-22 09:50:13 51°39.961 2°51.81 20.8722 0.027492 0.152465 -1.627401
2008-07-22 09:51:13 51°39.833 2°52.059 20.8855 0.042311 0.236076 -1.627401
2008-07-22 09:52:13 51°39.704 2°52.308 20.8585 0.035416 0.196931 -1.627401
2008-07-22 09:53:13 51°39.576 2°52.559 20.8771 0.050338 0.281958 -1.662225
2008-07-22 09:54:13 51°39.449 2°52.807 20.958 0.040253 0.224317 -1.627401
2008-07-22 09:55:13 51°39.32 2°53.056 20.9225 0.03202 0.177808 -1.627401
2008-07-22 09:56:13 51°39.181 2°53.295 20.9106 0.028521 0.158209 -1.627401
2008-07-22 09:57:13 51°39.04 2°53.529 20.9376 0.042208 0.235431 -1.627401
2008-07-22 09:58:13 51°38.898 2°53.759 20.9463 0.06917 0.391204 -1.627401
2008-07-22 09:59:13 51°38.757 2°53.989 20.9734 0.048485 0.271246 -1.627401
2008-07-22 10:00:13 51°38.616 2°54.219 20.9724 0.050543 0.283069 -1.627401
2008-07-22 10:01:13 51°38.477 2°54.456 20.9927 0.03768 0.209673 -1.627401
2008-07-22 10:02:13 51°38.332 2°54.69 21.0048 0.028624 0.15872 -1.627401
2008-07-22 10:03:13 51°38.19 2°54.923 20.9749 0.04159 0.231832 -1.627401
2008-07-22 10:04:13 51°38.035 2°55.139 21.0244 0.033667 0.186948 -1.627401
2008-07-22 10:05:13 51°37.849 2°55.305 21.0744 0.112806 0.649857 -1.627401
2008-07-22 10:06:13 51°37.642 2°55.393 21.0144 0.039944 0.222419 -1.627401
2008-07-22 10:07:13 51°37.458 2°55.209 21.0574 0.067832 0.383151 -1.627401
2008-07-22 10:08:13 51°37.33 2°54.91 21.0389 0.036548 0.203205 -1.627401
2008-07-22 10:09:13 51°37.203 2°54.609 21.0388 0.044781 0.249934 -1.627401
2008-07-22 10:10:13 51°37.076 2°54.308 21.036 0.041179 0.229392 -1.627401
2008-07-22 10:11:13 51°36.951 2°54.006 21.0717 0.035004 0.194443 -1.627401
2008-07-22 10:12:13 51°36.825 2°53.701 21.0938 0.031608 0.175393 -1.627401
2008-07-22 10:13:13 51°36.702 2°53.395 21.0669 0.032329 0.179333 -1.627401
2008-07-22 10:14:13 51°36.576 2°53.094 21.0871 0.060011 0.337473 -1.627401
2008-07-22 10:15:13 51°36.449 2°52.792 21.1086 0.035519 0.197263 -1.627401
2008-07-22 10:16:13 51°36.324 2°52.488 21.0976 0.045501 0.253965 -1.627401
2008-07-22 10:17:13 51°36.146 2°52.304 21.1203 0.025949 0.143706 -1.627401
2008-07-22 10:18:13 51°35.922 2°52.321 21.1418 0.054248 0.304132 -1.627401
2008-07-22 10:19:13 51°35.699 2°52.329 21.1085 0.027595 0.152839 -1.627401
2008-07-22 10:20:13 51°35.476 2°52.345 21.1413 0.030785 0.170622 -1.627401
2008-07-22 10:21:13 51°35.252 2°52.355 21.1734 0.030476 0.168869 -1.627401
2008-07-22 10:22:13 51°35.033 2°52.376 21.1583 0.02564 0.141973 -1.627401
2008-07-22 10:23:13 51°34.871 2°52.564 21.2013 0.026978 0.149425 -1.627401
2008-07-22 10:24:13 51°34.835 2°52.841 21.1855 0.024919 0.138002 -1.627401
2008-07-22 10:25:13 51°34.916 2°53.076 21.172 0.023685 0.131159 -1.627401
2008-07-22 10:26:13 51°35 2°53.313 21.2038 0.024611 0.136248 -1.627401
2008-07-22 10:27:13 51°35.08 2°53.559 21.1875 0.024611 0.13628 -1.627401
2008-07-22 10:28:13 51°35.158 2°53.802 21.2251 0.025022 0.138524 -1.627401
2008-07-22 10:29:13 51°35.237 2°54.043 21.2274 0.023685 0.131163 -1.627401
2008-07-22 10:30:13 51°35.316 2°54.287 21.2284 0.023376 0.12941 -1.627401
2008-07-22 10:31:13 51°35.394 2°54.534 21.2299 0.022553 0.124892 -1.627401
2008-07-22 10:32:13 51°35.472 2°54.777 21.2348 0.023582 0.13052 -1.627401
2008-07-22 10:33:13 51°35.551 2°55.021 21.2561 0.024405 0.135062 -1.627401
2008-07-22 10:34:13 51°35.627 2°55.268 21.2558 0.024199 0.133904 -1.627401
2008-07-22 10:35:13 51°35.702 2°55.516 21.2744 0.023685 0.131017 -1.627401
2008-07-22 10:36:13 51°35.78 2°55.76 21.2695 0.025846 0.143003 -1.627401
2008-07-22 10:37:13 51°35.833 2°56.016 21.2868 0.027081 0.149876 -1.627401
2008-07-22 10:38:13 51°35.795 2°56.303 21.2803 0.029756 0.164751 -1.627401
2008-07-22 10:39:13 51°35.748 2°56.589 21.2965 0.025743 0.142434 -1.627401
2008-07-22 10:40:13 51°35.64 2°56.824 21.2958 0.036033 0.199915 -1.627401
2008-07-22 10:41:13 51°35.423 2°56.801 21.3163 0.028007 0.15499 -1.627401
2008-07-22 10:42:13 51°35.201 2°56.707 21.3411 0.027389 0.151614 -1.627401
2008-07-22 10:43:13 51°34.974 2°56.658 21.3094 0.026669 0.1475 -1.627401
2008-07-22 10:44:13 51°34.749 2°56.61 21.3484 0.028418 0.157188 -1.627401
2008-07-22 10:45:13 51°34.518 2°56.566 21.348 0.033461 0.185417 -1.627401
2008-07-22 10:46:13 51°34.29 2°56.568 21.374 0.033461 0.185391 -1.627401
2008-07-22 10:47:13 51°34.061 2°56.594 21.3593 0.039532 0.219659 -1.627401
2008-07-22 10:48:13 51°33.845 2°56.674 21.3922 0.02636 0.145852 -1.627401
2008-07-22 10:49:13 51°33.65 2°56.825 21.3808 0.039532 0.219667 -1.627401
2008-07-22 10:50:13 51°33.47 2°57.006 21.3801 0.046324 0.258234 -1.627401
2008-07-22 10:51:13 51°33.293 2°57.195 21.4402 0.041796 0.232413 -1.627401
2008-07-22 10:52:13 51°33.115 2°57.38 21.4514 0.064848 0.364881 -1.627401
2008-07-22 10:53:13 51°32.933 2°57.56 21.446 0.087695 0.498729 -1.627401
2008-07-22 10:54:13 51°32.754 2°57.743 21.4603 0.052293 0.292323 -1.627401
2008-07-22 10:55:13 51°32.575 2°57.93 21.4403 0.029242 0.161758 -1.627401
2008-07-22 10:56:13 51°32.395 2°58.119 21.4504 0.027595 0.152589 -1.627401
2008-07-22 10:57:13 51°32.205 2°58.286 21.4498 0.036445 0.202009 -1.627401
2008-07-22 10:58:13 51°31.998 2°58.382 21.4906 0.049 0.273274 -1.627401
2008-07-22 10:59:13 51°31.775 2°58.399 21.4566 0.047868 0.266834 -1.627401
2008-07-22 11:00:13 51°31.551 2°58.335 21.4671 0.035313 0.195655 -1.627401
2008-07-22 11:01:13 51°31.362 2°58.136 21.5027 0.048074 0.268019 -1.627401
2008-07-22 11:02:13 51°31.203 2°57.864 21.5121 0.030065 0.166236 -1.627401
2008-07-22 11:03:13 51°31.048 2°57.585 21.4927 0.058159 0.32582 -1.627401
2008-07-22 11:04:13 51°30.897 2°57.302 21.4955 0.059085 0.331086 -1.627401
2008-07-22 11:05:13 51°30.743 2°57.025 21.5356 0.03202 0.177079 -1.627401
2008-07-22 11:06:13 51°30.588 2°56.753 21.5727 0.046324 0.257978 -1.627401
2008-07-22 11:07:13 51°30.433 2°56.485 21.5728 0.031608 0.174782 -1.592577
2008-07-22 11:08:13 51°30.24 2°56.297 21.5341 0.031094 0.171901 -1.627401
2008-07-22 11:09:13 51°30.041 2°56.13 21.5938 0.068244 0.38422 -1.627401
2008-07-22 11:10:13 51°29.839 2°55.984 21.5862 0.033358 0.184583 -1.627401
2008-07-22 11:11:13 51°29.627 2°55.904 21.5509 0.028624 0.158119 -1.627401
2008-07-22 11:12:13 51°29.409 2°55.828 21.5888 0.029242 0.16157 -1.627401
2008-07-22 11:13:13 51°29.194 2°55.732 21.6345 0.024096 0.133068 -1.627401
2008-07-22 11:14:13 51°28.975 2°55.634 21.6155 0.025949 0.143282 -1.627401
2008-07-22 11:15:13 51°28.758 2°55.544 21.5851 0.030579 0.16896 -1.627401
2008-07-22 11:16:13 51°28.54 2°55.45 21.5912 0.040355 0.223892 -1.627401
2008-07-22 11:17:13 51°28.321 2°55.364 21.614 0.032432 0.179277 -1.627401
2008-07-22 11:18:13 51°28.102 2°55.277 21.6439 0.02955 0.163217 -1.627401
2008-07-22 11:19:13 51°27.882 2°55.193 21.6537 0.026154 0.14435 -1.627401
2008-07-22 11:20:13 51°27.662 2°55.11 21.6638 0.029859 0.16492 -1.627401
2008-07-22 11:21:13 51°27.442 2°55.026 21.6654 0.03449 0.190747 -1.627401
2008-07-22 11:22:13 51°27.222 2°54.944 21.6662 0.029344 0.162044 -1.627401
2008-07-22 11:23:13 51°27.003 2°54.868 21.6828 0.034284 0.189621 -1.627401
2008-07-22 11:24:13 51°26.782 2°54.802 21.6728 0.030579 0.168849 -1.627401
2008-07-22 11:25:13 51°26.56 2°54.734 21.7092 0.026566 0.146605 -1.627401
2008-07-22 11:26:13 51°26.338 2°54.671 21.7072 0.025331 0.139753 -1.627401
2008-07-22 11:27:13 51°26.118 2°54.596 21.7105 0.038194 0.211524 -1.627401
2008-07-22 11:28:13 51°25.897 2°54.533 21.7498 0.030476 0.168287 -1.627401
2008-07-22 11:29:13 51°25.676 2°54.484 21.7401 0.029139 0.160775 -1.627401
2008-07-22 11:30:13 51°25.454 2°54.435 21.7341 0.027183 0.149936 -1.627401
2008-07-22 11:31:13 51°25.231 2°54.417 21.7532 0.024919 0.137415 -1.627401
2008-07-22 11:32:13 51°25.011 2°54.401 21.7209 0.02708 0.149388 -1.627401
2008-07-22 11:33:13 51°24.791 2°54.389 21.7572 0.026566 0.146505 -1.627401
2008-07-22 11:34:13 51°24.572 2°54.38 21.7425 0.033564 0.185426 -1.627401
2008-07-22 11:35:13 51°24.354 2°54.361 21.7914 0.026463 0.145865 -1.627401
2008-07-22 11:36:13 51°24.139 2°54.322 21.7979 0.043237 0.239888 -1.627401
2008-07-22 11:37:13 51°23.929 2°54.203 21.81 0.034387 0.189967 -1.627401
2008-07-22 11:38:13 51°23.728 2°54.039 21.7821 0.032123 0.177279 -1.627401
2008-07-22 11:39:13 51°23.521 2°53.89 21.7659 0.090885 0.515829 -1.627401
2008-07-22 11:40:13 51°23.315 2°53.744 21.7993 0.038915 0.215327 -1.627401
2008-07-22 11:41:13 51°23.11 2°53.602 21.8201 0.02955 0.162915 -1.627401
2008-07-22 11:42:13 51°22.901 2°53.476 21.8392 0.024919 0.137301 -1.627401
2008-07-22 11:43:13 51°22.692 2°53.357 21.8633 0.049 0.272509 -1.627401
2008-07-22 11:44:13 51°22.486 2°53.235 21.8311 0.027389 0.150943 -1.627401
2008-07-22 11:45:13 51°22.281 2°53.108 21.8496 0.025331 0.139568 -1.627401
2008-07-22 11:46:13 51°22.074 2°53.02 21.8367 0.050646 0.281802 -1.627401
2008-07-22 11:47:13 51°21.864 2°53.028 21.8444 0.026051 0.143571 -1.627401
2008-07-22 11:48:13 51°21.651 2°53.031 21.8781 0.027183 0.149811 -1.627401
2008-07-22 11:49:13 51°21.438 2°53.045 21.8852 0.02811 0.154923 -1.627401
2008-07-22 11:50:13 51°21.226 2°53.064 21.8905 0.026669 0.146908 -1.627401
2008-07-22 11:51:13 51°21.01 2°53.07 21.8991 0.028315 0.156044 -1.627401
2008-07-22 11:52:13 51°20.795 2°53.07 21.9177 0.026154 0.144006 -1.627401
2008-07-22 11:53:13 51°20.578 2°53.067 21.9149 0.024302 0.133828 -1.627401
2008-07-22 11:54:13 51°20.36 2°53.044 21.9437 0.025228 0.138929 -1.627401
2008-07-22 11:55:13 51°20.143 2°53.02 21.9111 0.02389 0.131563 -1.627401
2008-07-22 11:56:13 51°19.927 2°52.989 21.9244 0.024405 0.134377 -1.627401
2008-07-22 11:57:13 51°19.711 2°52.967 21.9587 0.025125 0.13833 -1.627401
2008-07-22 11:58:13 51°19.496 2°52.95 21.9513 0.023685 0.130384 -1.627401
2008-07-22 11:59:13 51°19.279 2°52.923 21.9389 0.024714 0.136096 -1.627401
2008-07-22 12:00:13 51°19.06 2°52.905 21.9907 0.029653 0.163353 -1.627401
2008-07-22 12:01:13 51°18.845 2°52.884 21.99 0.02564 0.14112 -1.627401
2008-07-22 12:02:13 51°18.629 2°52.87 21.9773 0.02389 0.131495 -1.627401
2008-07-22 12:03:13 51°18.416 2°52.91 21.9914 0.024508 0.134872 -1.627401
2008-07-22 12:04:13 51°18.205 2°52.963 22.0009 0.024405 0.134269 -1.627401
2008-07-22 12:05:13 51°17.994 2°52.997 22.0126 0.025434 0.139924 -1.627401
2008-07-22 12:06:13 51°17.778 2°53.005 22.0226 0.023479 0.12919 -1.627401
2008-07-22 12:07:13 51°17.561 2°53.01 22.0294 0.022656 0.124684 -1.627401
2008-07-22 12:08:13 51°17.346 2°53.021 22.0281 0.022553 0.124122 -1.627401
2008-07-22 12:09:13 51°17.13 2°53.02 22.0406 0.025331 0.139328 -1.627401
2008-07-22 12:10:13 51°16.916 2°53.027 22.0692 0.024199 0.133127 -1.627401
2008-07-22 12:11:13 51°16.707 2°53.06 22.0483 0.028315 0.155741 -1.627401
2008-07-22 12:12:13 51°16.504 2°53.13 22.042 0.02883 0.158583 -1.627401
2008-07-22 12:13:13 51°16.306 2°53.229 22.0758 0.023788 0.130821 -1.627401
2008-07-22 12:14:13 51°16.117 2°53.346 22.0881 0.02245 0.123505 -1.627401
2008-07-22 12:15:13 51°15.935 2°53.48 22.0906 0.026154 0.143833 -1.627401
2008-07-22 12:16:13 51°15.75 2°53.608 22.0854 0.023788 0.130786 -1.627401
2008-07-22 12:17:13 51°15.562 2°53.728 22.1038 0.023067 0.12683 -1.627401
2008-07-22 12:18:13 51°15.374 2°53.854 22.1012 0.026772 0.14717 -1.627401
2008-07-22 12:19:13 51°15.192 2°54.001 22.1247 0.022553 0.123968 -1.627401
2008-07-22 12:20:13 51°15.018 2°54.151 22.148 0.022656 0.124541 -1.627401
2008-07-22 12:21:13 51°14.846 2°54.312 22.1217 0.023788 0.130725 -1.627401
2008-07-22 12:22:13 51°14.686 2°54.496 22.149 0.023582 0.129563 -1.627401
2008-07-22 12:23:13 51°14.545 2°54.708 22.1684 0.026772 0.147067 -1.627401
2008-07-22 12:24:13 51°14.41 2°54.934 22.1943 0.02955 0.162452 -1.627401
2008-07-22 12:25:13 51°14.29 2°55.187 22.1573 0.024199 0.132871 -1.627401
2008-07-22 12:26:14 51°14.197 2°55.336 22.1841 0.023479 0.128959 -1.627401
2008-07-22 12:27:17 51°14.119 2°55.407 22.192 0.023685 0.130095 -1.627401
2008-07-22 12:28:17 51°14.038 2°55.47 22.2025 0.023273 0.127833 -1.627401